createdAt,value
2022-09-22T00:04:42.656Z,9.52
2022-09-22T00:09:44.378Z,9.42
2022-09-22T00:14:46.006Z,9.39
2022-09-22T00:19:47.650Z,9.34
2022-09-22T00:24:49.257Z,9.26
2022-09-22T00:29:51.556Z,9.22
2022-09-22T00:34:53.174Z,9.15
2022-09-22T00:39:54.847Z,9.11
2022-09-22T00:44:56.464Z,9.03
2022-09-22T00:50:07.023Z,8.91
2022-09-22T00:55:15.543Z,8.90
2022-09-22T01:00:17.393Z,8.89
2022-09-22T01:05:19.041Z,8.93
2022-09-22T01:10:20.744Z,8.91
2022-09-22T01:15:32.486Z,8.93
2022-09-22T01:20:56.175Z,9.05
2022-09-22T01:26:31.258Z,8.90
2022-09-22T01:31:50.622Z,9.08
2022-09-22T01:37:02.730Z,8.88
2022-09-22T01:42:11.736Z,8.81
2022-09-22T01:47:22.076Z,8.85
2022-09-22T01:52:26.887Z,8.73
2022-09-22T01:57:37.506Z,8.70
2022-09-22T02:02:53.124Z,8.67
2022-09-22T02:07:54.854Z,8.63
2022-09-22T02:12:56.483Z,8.66
2022-09-22T02:18:02.497Z,8.54
2022-09-22T02:23:04.116Z,8.39
2022-09-22T02:28:05.791Z,8.40
2022-09-22T02:33:07.468Z,8.41
2022-09-22T02:38:15.483Z,8.45
2022-09-22T02:43:18.963Z,8.53
2022-09-22T02:48:24.990Z,8.48
2022-09-22T02:53:26.664Z,8.36
2022-09-22T02:58:28.283Z,8.28
2022-09-22T03:03:29.928Z,8.26
2022-09-22T03:08:31.532Z,8.28
2022-09-22T03:13:33.114Z,8.31
2022-09-22T03:18:34.811Z,8.33
2022-09-22T03:23:36.432Z,8.29
2022-09-22T03:28:38.058Z,8.31
2022-09-22T03:33:39.683Z,8.24
2022-09-22T03:38:41.290Z,8.18
2022-09-22T03:43:42.886Z,8.12
2022-09-22T03:48:45.442Z,8.08
2022-09-22T03:53:47.189Z,8.07
2022-09-22T03:58:49.660Z,7.99
2022-09-22T04:03:51.277Z,7.94
2022-09-22T04:08:52.900Z,7.83
2022-09-22T04:13:54.521Z,7.78
2022-09-22T04:18:56.237Z,7.67
2022-09-22T04:23:57.895Z,7.60
2022-09-22T04:28:59.615Z,7.57
2022-09-22T04:34:04.243Z,7.55
2022-09-22T04:39:09.054Z,7.45
2022-09-22T04:44:10.719Z,7.39
2022-09-22T04:49:15.940Z,7.34
2022-09-22T04:54:17.563Z,7.25
2022-09-22T04:59:19.191Z,7.16
2022-09-22T05:04:21.065Z,7.15
2022-09-22T05:09:22.770Z,7.17
2022-09-22T05:14:26.536Z,7.15
2022-09-22T05:19:28.260Z,7.14
2022-09-22T05:24:30.278Z,7.09
2022-09-22T05:29:31.903Z,7.10
2022-09-22T05:34:33.511Z,7.09
2022-09-22T05:39:35.116Z,7.05
2022-09-22T05:44:36.720Z,7.01
2022-09-22T05:49:38.382Z,7.01
2022-09-22T05:54:40.012Z,7.02
2022-09-22T05:59:41.632Z,7.05
2022-09-22T06:04:43.262Z,7.04
2022-09-22T06:09:44.884Z,7.06
2022-09-22T06:14:46.543Z,7.06
2022-09-22T06:19:50.168Z,7.10
2022-09-22T06:24:51.805Z,7.19
2022-09-22T06:29:53.438Z,7.25
2022-09-22T06:34:56.041Z,7.32
2022-09-22T06:39:57.660Z,7.41
2022-09-22T06:44:59.275Z,7.47
2022-09-22T06:50:05.498Z,7.57
2022-09-22T06:55:07.532Z,7.62
2022-09-22T07:00:09.824Z,7.73
2022-09-22T07:05:11.738Z,7.84
2022-09-22T07:10:13.399Z,7.93
2022-09-22T07:15:15.173Z,8.05
2022-09-22T07:20:17.726Z,8.15
2022-09-22T07:25:19.339Z,8.30
2022-09-22T07:30:24.097Z,8.40
2022-09-22T07:35:28.271Z,8.51
2022-09-22T07:40:29.965Z,8.65
2022-09-22T07:45:31.591Z,8.82
2022-09-22T07:50:33.273Z,8.98
2022-09-22T07:55:36.639Z,9.12
2022-09-22T08:00:38.324Z,9.32
2022-09-22T08:05:40.735Z,9.43
2022-09-22T08:10:42.365Z,9.75
2022-09-22T08:15:44.204Z,10.00
2022-09-22T08:20:45.905Z,10.20
2022-09-22T08:25:47.535Z,10.34
2022-09-22T08:30:49.196Z,10.51
2022-09-22T08:35:53.888Z,10.77
2022-09-22T08:41:12.482Z,10.89
2022-09-22T08:46:14.133Z,11.03
2022-09-22T08:51:38.961Z,11.12
2022-09-22T08:57:04.078Z,11.28
2022-09-22T09:02:27.611Z,11.38
2022-09-22T09:07:56.775Z,11.57
2022-09-22T09:13:20.757Z,11.80
2022-09-22T09:18:25.809Z,11.95
2022-09-22T09:29:03.811Z,12.14
2022-09-22T09:34:12.087Z,12.36
2022-09-22T09:39:45.696Z,12.47
2022-09-22T09:44:53.409Z,12.69
2022-09-22T09:49:55.094Z,12.82
2022-09-22T09:54:56.913Z,12.88
2022-09-22T10:00:32.079Z,13.06
2022-09-22T10:05:37.394Z,13.11
2022-09-22T10:10:38.994Z,13.28
2022-09-22T10:15:41.375Z,13.38
2022-09-22T10:20:43.027Z,13.51
2022-09-22T10:25:44.693Z,13.70
2022-09-22T10:31:04.350Z,13.81
2022-09-22T10:36:12.135Z,13.86
2022-09-22T10:41:19.291Z,14.00
2022-09-22T10:46:34.718Z,14.08
2022-09-22T10:51:56.489Z,14.17
2022-09-22T10:57:08.983Z,14.35
2022-09-22T11:02:48.565Z,14.62
2022-09-22T11:08:25.515Z,14.77
2022-09-22T11:13:41.100Z,15.04
2022-09-22T11:19:01.875Z,15.07
2022-09-22T11:24:26.299Z,15.06
2022-09-22T11:29:45.265Z,15.04
2022-09-22T11:34:52.853Z,15.09
2022-09-22T11:40:13.206Z,15.11
2022-09-22T11:45:22.012Z,15.20
2022-09-22T11:50:24.873Z,15.31
2022-09-22T11:55:34.095Z,15.68
2022-09-22T12:00:39.115Z,16.04
2022-09-22T12:05:47.344Z,16.42
2022-09-22T12:10:50.203Z,17.17
2022-09-22T12:16:25.708Z,17.48
2022-09-22T12:21:53.840Z,18.20
2022-09-22T12:26:55.472Z,18.44
2022-09-22T12:31:58.879Z,19.37
2022-09-22T12:37:12.328Z,20.38
2022-09-22T12:42:33.355Z,20.32
2022-09-22T12:47:39.407Z,20.19
2022-09-22T12:52:40.862Z,20.28
2022-09-22T12:57:50.289Z,20.36
2022-09-22T13:02:51.950Z,20.68
2022-09-22T13:07:54.192Z,20.65
2022-09-22T13:13:10.454Z,21.21
2022-09-22T13:18:29.001Z,21.89
2022-09-22T13:23:30.653Z,22.42
2022-09-22T13:28:32.296Z,22.74
2022-09-22T13:33:34.782Z,22.83
2022-09-22T13:38:43.868Z,23.10
2022-09-22T13:43:48.249Z,23.19
2022-09-22T13:48:50.009Z,23.49
2022-09-22T13:53:53.171Z,23.43
2022-09-22T13:58:56.844Z,23.68
2022-09-22T14:03:58.497Z,23.69
2022-09-22T14:09:01.519Z,23.37
2022-09-22T14:14:03.382Z,22.70
2022-09-22T14:19:15.602Z,22.08
2022-09-22T14:24:17.271Z,21.65
2022-09-22T14:29:26.860Z,21.28
2022-09-22T14:34:33.386Z,20.89
2022-09-22T14:39:35.026Z,20.36
2022-09-22T14:44:44.652Z,19.92
2022-09-22T14:49:47.518Z,19.54
2022-09-22T14:54:49.369Z,19.15
2022-09-22T15:00:14.241Z,18.89
2022-09-22T15:05:29.409Z,18.58
2022-09-22T15:10:32.230Z,18.32
2022-09-22T15:15:33.855Z,18.12
2022-09-22T15:20:51.561Z,17.88
2022-09-22T15:25:53.855Z,17.68
2022-09-22T15:30:55.721Z,17.52
2022-09-22T15:36:02.280Z,17.36
2022-09-22T15:41:03.948Z,17.25
2022-09-22T15:46:08.786Z,17.12
2022-09-22T15:51:12.285Z,17.02
2022-09-22T15:56:20.751Z,16.86
2022-09-22T16:01:22.656Z,16.73
2022-09-22T16:06:24.335Z,16.62
2022-09-22T16:11:32.192Z,16.67
2022-09-22T16:16:34.978Z,16.82
2022-09-22T16:21:38.229Z,16.97
2022-09-22T16:26:40.027Z,17.11
2022-09-22T16:31:41.749Z,17.11
2022-09-22T16:36:44.540Z,17.09
2022-09-22T16:41:46.273Z,17.03
2022-09-22T16:46:47.986Z,16.93
2022-09-22T16:51:50.475Z,16.83
2022-09-22T16:56:53.758Z,16.75
2022-09-22T17:01:56.292Z,16.61
2022-09-22T17:06:58.253Z,16.44
2022-09-22T17:12:00.813Z,16.26
2022-09-22T17:17:06.521Z,16.04
2022-09-22T17:22:08.115Z,15.85
2022-09-22T17:27:09.689Z,15.65
2022-09-22T17:32:11.279Z,15.45
2022-09-22T17:37:15.492Z,15.27
2022-09-22T17:42:17.125Z,15.11
2022-09-22T17:47:37.536Z,14.93
2022-09-22T17:52:57.431Z,14.75
2022-09-22T17:57:59.071Z,14.56
2022-09-22T18:03:02.181Z,14.39
2022-09-22T18:08:03.836Z,14.23
2022-09-22T18:13:05.484Z,14.07
2022-09-22T18:18:07.124Z,13.91
2022-09-22T18:23:08.821Z,13.76
2022-09-22T18:28:10.473Z,13.61
2022-09-22T18:33:12.879Z,13.46
2022-09-22T18:38:14.509Z,13.32
2022-09-22T18:43:16.135Z,13.18
2022-09-22T18:48:18.354Z,13.06
2022-09-22T18:53:22.040Z,12.93
2022-09-22T18:58:23.689Z,12.80
2022-09-22T19:03:25.390Z,12.69
2022-09-22T19:08:27.210Z,12.56
2022-09-22T19:13:28.949Z,12.46
2022-09-22T19:18:31.499Z,12.37
2022-09-22T19:23:33.872Z,12.22
2022-09-22T19:28:35.560Z,12.11
2022-09-22T19:33:37.196Z,12.04
2022-09-22T19:38:38.807Z,11.91
2022-09-22T19:43:40.431Z,11.78
2022-09-22T19:48:42.025Z,11.64
2022-09-22T19:53:43.632Z,11.57
2022-09-22T19:58:45.278Z,11.49
2022-09-22T20:03:46.877Z,11.43
2022-09-22T20:08:49.248Z,11.36
2022-09-22T20:14:11.409Z,11.31
2022-09-22T20:19:13.167Z,11.22
2022-09-22T20:24:16.557Z,11.15
2022-09-22T20:29:18.948Z,11.08
2022-09-22T20:34:20.622Z,10.98
2022-09-22T20:39:22.300Z,10.91
2022-09-22T20:44:23.914Z,10.84
2022-09-22T20:49:26.002Z,10.74
2022-09-22T20:54:27.611Z,10.66
2022-09-22T20:59:29.257Z,10.56
2022-09-22T21:04:30.926Z,10.46
2022-09-22T21:09:51.209Z,10.42
2022-09-22T21:14:52.945Z,10.39
2022-09-22T21:19:57.080Z,10.34
2022-09-22T21:24:58.696Z,10.31
2022-09-22T21:30:00.313Z,10.25
2022-09-22T21:35:02.851Z,10.22
2022-09-22T21:40:04.811Z,10.18
2022-09-22T21:45:06.884Z,10.17
2022-09-22T21:50:08.961Z,10.09
2022-09-22T21:55:10.693Z,10.05
2022-09-22T22:00:13.231Z,9.97
2022-09-22T22:05:15.226Z,9.89
2022-09-22T22:10:17.206Z,9.82
2022-09-22T22:15:18.874Z,9.77
2022-09-22T22:20:20.913Z,9.75
2022-09-22T22:25:22.562Z,9.72
2022-09-22T22:30:24.193Z,9.69
2022-09-22T22:35:25.945Z,9.67
2022-09-22T22:40:27.843Z,9.55
2022-09-22T22:45:29.554Z,9.52
2022-09-22T22:50:31.208Z,9.47
2022-09-22T22:55:32.857Z,9.41
2022-09-22T23:00:34.533Z,9.34
2022-09-22T23:05:40.827Z,9.29
2022-09-22T23:10:44.577Z,9.22
2022-09-22T23:15:46.255Z,9.21
2022-09-22T23:20:47.895Z,9.16
2022-09-22T23:25:49.909Z,9.14
2022-09-22T23:31:07.765Z,9.13
2022-09-22T23:36:15.567Z,9.08
2022-09-22T23:41:17.176Z,9.04
2022-09-22T23:46:19.958Z,8.99
2022-09-22T23:51:21.655Z,8.92
2022-09-22T23:56:23.521Z,8.87
